Time;durP1;ratioP1;P1;durP2;ratioP2;P2;SDS_P1;SDS_P2;PMS_P1;PMS_P2;Temp;Humidity;BMP_temperature;BMP_pressure;BME280_temperature;BME280_humidity;BME280_pressure;Samples;Min_cycle;Max_cycle;Signal;HPM_P1;HPM_P2
2020/12/29 00:00:08;;;;;;;;;22.75;17.75;;;;;9.32;82.01;100067.78;3725581;37;20948;-62
2020/12/29 00:02:36;;;;;;;;;18.00;17.00;;;;;9.22;81.94;100056.44;3725010;37;20949;-63
2020/12/29 00:05:03;;;;;;;;;20.50;17.75;;;;;9.28;81.88;100061.09;3725304;37;20954;-62
2020/12/29 00:07:32;;;;;;;;;21.00;18.50;;;;;9.20;81.83;100055.78;3725078;38;20909;-62
2020/12/29 00:09:59;;;;;;;;;19.50;17.75;;;;;9.21;82.05;100061.00;3725598;37;20918;-62
2020/12/29 00:12:26;;;;;;;;;21.75;18.25;;;;;9.13;81.90;100042.19;3725499;38;20932;-61
2020/12/29 00:14:57;;;;;;;;;18.25;16.50;;;;;9.01;82.00;100027.47;3725362;37;20909;-62
2020/12/29 00:17:24;;;;;;;;;22.25;19.00;;;;;8.90;82.49;100027.94;3725296;37;20914;-62
2020/12/29 00:19:53;;;;;;;;;22.00;19.25;;;;;8.79;82.59;100023.87;3724984;38;20904;-62
2020/12/29 00:22:19;;;;;;;;;21.50;18.50;;;;;8.78;82.96;100038.38;3725516;37;20905;-62
2020/12/29 00:24:46;;;;;;;;;21.75;18.75;;;;;8.71;83.15;100028.50;3725400;37;20912;-62
2020/12/29 00:27:19;;;;;;;;;18.50;16.50;;;;;8.65;83.46;100029.25;3725401;38;20888;-62
2020/12/29 00:29:45;;;;;;;;;23.75;19.00;;;;;8.62;83.47;100015.09;3725306;38;20895;-62
2020/12/29 00:32:11;;;;;;;;;22.00;20.25;;;;;8.61;83.58;100026.91;3725251;38;20880;-61
2020/12/29 00:34:38;;;;;;;;;21.50;18.75;;;;;8.56;83.66;100017.69;3725263;37;20880;-61
2020/12/29 00:37:05;;;;;;;;;20.25;17.25;;;;;8.45;83.72;99993.87;3725342;37;20883;-62
2020/12/29 00:39:31;;;;;;;;;17.75;16.00;;;;;8.46;83.71;99999.06;3725394;37;20875;-61
2020/12/29 00:41:59;;;;;;;;;15.00;14.50;;;;;8.15;83.99;99952.53;3725473;38;20857;-60
2020/12/29 00:44:25;;;;;;;;;19.00;17.25;;;;;8.21;83.90;99955.31;3724860;37;20888;-61
2020/12/29 00:46:52;;;;;;;;;21.25;18.00;;;;;8.29;84.06;99971.44;3725245;38;20881;-62
2020/12/29 00:49:18;;;;;;;;;23.00;18.25;;;;;8.12;84.47;99945.63;3725309;38;20867;-62
2020/12/29 00:51:44;;;;;;;;;18.50;18.25;;;;;8.13;84.49;99950.00;3725295;37;20886;-60
2020/12/29 00:54:10;;;;;;;;;19.50;16.00;;;;;8.12;84.45;99961.81;3725499;37;20890;-61
2020/12/29 00:56:37;;;;;;;;;19.25;17.75;;;;;8.13;84.57;99966.19;3725385;38;20841;-61
2020/12/29 00:59:04;;;;;;;;;18.75;16.50;;;;;8.17;84.62;99989.06;3724971;38;20846;-62
2020/12/29 01:01:31;;;;;;;;;18.75;17.50;;;;;8.18;84.40;99987.19;3724402;38;20853;-62
2020/12/29 01:03:59;;;;;;;;;14.50;14.25;;;;;8.10;84.92;99969.25;3724918;38;20876;-61
2020/12/29 01:06:27;;;;;;;;;18.75;17.25;;;;;8.22;84.58;99975.88;3725289;38;20862;-62
2020/12/29 01:08:55;;;;;;;;;13.75;13.00;;;;;8.16;84.64;99963.13;3725090;38;20846;-62
2020/12/29 01:11:21;;;;;;;;;14.50;14.00;;;;;8.25;85.00;99988.16;3725173;38;20861;-62
2020/12/29 01:13:50;;;;;;;;;19.00;17.50;;;;;8.22;84.79;99981.25;3725379;37;20819;-62
2020/12/29 01:16:18;;;;;;;;;15.00;13.75;;;;;8.17;84.89;99972.03;3725049;38;20820;-61
2020/12/29 01:18:44;;;;;;;;;17.75;15.25;;;;;8.27;84.91;99967.22;3725444;37;20822;-62
2020/12/29 01:21:12;;;;;;;;;17.00;15.25;;;;;8.35;84.90;99960.94;3725365;37;20809;-62
2020/12/29 01:23:38;;;;;;;;;16.75;15.25;;;;;8.42;85.03;99959.19;3724885;37;20824;-62
2020/12/29 01:26:07;;;;;;;;;15.75;14.75;;;;;8.41;84.94;99976.38;3725265;38;21089;-63
2020/12/29 01:28:35;;;;;;;;;11.50;11.25;;;;;8.45;84.91;99980.38;3725336;38;20839;-61
2020/12/29 01:31:01;;;;;;;;;14.25;13.25;;;;;8.43;84.87;99960.84;3724873;37;20803;-61
2020/12/29 01:33:28;;;;;;;;;14.75;13.25;;;;;8.55;85.03;99970.16;3725372;37;20806;-61
2020/12/29 01:35:56;;;;;;;;;17.00;14.25;;;;;8.57;84.61;99946.53;3725256;37;20800;-62
2020/12/29 01:38:22;;;;;;;;;16.50;13.50;;;;;8.60;84.69;99948.88;3724912;37;20791;-62
2020/12/29 01:40:49;;;;;;;;;14.50;13.75;;;;;8.60;84.70;99951.56;3725378;38;20781;-62
2020/12/29 01:43:15;;;;;;;;;17.00;15.25;;;;;8.52;84.56;99944.41;3725359;38;20806;-62
2020/12/29 01:45:41;;;;;;;;;15.25;14.00;;;;;8.66;84.63;99960.78;3725375;38;20792;-63
2020/12/29 01:48:08;;;;;;;;;13.75;13.50;;;;;8.54;84.54;99936.12;3725215;37;20784;-61
2020/12/29 01:50:34;;;;;;;;;15.00;14.00;;;;;8.74;84.54;99966.94;3724977;37;20798;-61
2020/12/29 01:53:02;;;;;;;;;13.00;12.75;;;;;8.77;84.19;99966.56;3725573;38;20817;-62
2020/12/29 01:55:30;;;;;;;;;15.00;12.50;;;;;8.80;84.12;99976.97;3725419;38;20787;-62
2020/12/29 01:57:59;;;;;;;;;12.50;12.50;;;;;8.85;84.18;99969.13;3725300;37;20782;-62
2020/12/29 02:00:26;;;;;;;;;15.50;14.50;;;;;8.83;84.13;99954.19;3725512;38;20757;-61
2020/12/29 02:02:56;;;;;;;;;17.50;15.25;;;;;8.87;83.48;99953.59;3725349;37;20780;-61
2020/12/29 02:05:25;;;;;;;;;12.25;11.75;;;;;8.88;83.64;99949.03;3725001;37;20794;-62
2020/12/29 02:07:54;;;;;;;;;14.00;12.00;;;;;8.89;83.46;99943.44;3725057;37;20741;-61
2020/12/29 02:10:22;;;;;;;;;17.00;14.50;;;;;8.87;83.26;99937.41;3725221;38;20721;-61
2020/12/29 02:12:48;;;;;;;;;16.00;15.00;;;;;8.83;83.32;99938.00;3725006;37;20727;-61
2020/12/29 02:15:17;;;;;;;;;14.75;13.75;;;;;8.88;83.32;99944.47;3725491;37;20774;-62
2020/12/29 02:17:44;;;;;;;;;14.50;13.00;;;;;8.84;83.36;99945.88;3725871;38;20770;-61
2020/12/29 02:20:11;;;;;;;;;14.25;12.75;;;;;8.85;83.42;99947.53;3725120;38;20834;-62
2020/12/29 02:22:37;;;;;;;;;16.00;14.25;;;;;8.82;83.13;99944.41;3726749;37;20741;-61
2020/12/29 02:25:06;;;;;;;;;14.75;14.00;;;;;8.82;83.25;99934.44;3725443;37;20752;-62
2020/12/29 02:27:42;;;;;;;;;14.25;13.50;;;;;8.81;83.32;99935.47;3725392;37;20717;-60
2020/12/29 02:30:10;;;;;;;;;12.50;11.25;;;;;8.79;83.12;99939.37;3725380;37;20740;-61
2020/12/29 02:32:37;;;;;;;;;15.00;13.00;;;;;8.73;83.19;99930.19;3725325;37;20713;-61
2020/12/29 02:35:08;;;;;;;;;15.00;12.75;;;;;8.73;83.10;99938.28;3725463;38;20711;-61
2020/12/29 02:37:34;;;;;;;;;18.00;15.00;;;;;8.75;83.05;99946.19;3724937;38;20698;-61
2020/12/29 02:40:01;;;;;;;;;10.75;10.75;;;;;8.76;83.42;99924.41;3725284;38;20690;-61
2020/12/29 02:42:27;;;;;;;;;13.00;13.00;;;;;8.66;83.27;99901.44;3725373;38;20694;-61
2020/12/29 02:44:53;;;;;;;;;14.75;14.00;;;;;8.72;83.56;99923.09;3725306;37;20748;-61
2020/12/29 02:47:20;;;;;;;;;14.50;13.25;;;;;8.73;83.21;99910.44;3725316;37;20717;-60
2020/12/29 02:49:49;;;;;;;;;13.50;13.50;;;;;8.76;83.29;99929.81;3725341;37;20722;-60
2020/12/29 02:52:15;;;;;;;;;13.00;12.00;;;;;8.79;82.94;99913.25;3725441;38;20678;-60
2020/12/29 02:54:43;;;;;;;;;14.75;12.50;;;;;8.76;82.96;99919.00;3725496;37;20691;-61
2020/12/29 02:57:09;;;;;;;;;14.25;13.50;;;;;8.69;82.99;99896.50;3725526;38;20691;-62
2020/12/29 02:59:36;;;;;;;;;14.00;11.75;;;;;8.74;83.29;99898.62;3725342;37;20671;-61
2020/12/29 03:02:04;;;;;;;;;15.00;14.25;;;;;8.70;83.09;99897.34;3725475;37;20683;-61
2020/12/29 03:04:30;;;;;;;;;13.50;13.00;;;;;8.72;83.00;99896.13;3725413;37;20683;-61
2020/12/29 03:06:56;;;;;;;;;12.50;11.75;;;;;8.66;83.06;99902.28;3725404;37;20672;-61
2020/12/29 03:09:23;;;;;;;;;13.00;13.00;;;;;8.71;83.45;99905.25;3725317;37;20670;-61
2020/12/29 03:11:52;;;;;;;;;15.50;14.25;;;;;8.64;82.98;99893.53;3725276;37;20682;-61
2020/12/29 03:14:21;;;;;;;;;14.00;12.25;;;;;8.66;82.92;99902.28;3725054;37;20666;-61
2020/12/29 03:16:48;;;;;;;;;11.75;11.00;;;;;8.67;83.06;99901.25;3724906;38;20659;-60
2020/12/29 03:19:15;;;;;;;;;15.00;13.00;;;;;8.63;82.91;99905.34;3725479;37;20644;-60
2020/12/29 03:21:43;;;;;;;;;14.00;13.50;;;;;8.60;83.07;99916.50;3725042;37;20629;-62
2020/12/29 03:24:09;;;;;;;;;13.00;11.75;;;;;8.62;82.85;99919.84;3725382;38;20632;-61
2020/12/29 03:26:37;;;;;;;;;14.00;12.00;;;;;8.62;83.16;99925.25;3725469;37;20675;-61
2020/12/29 03:29:05;;;;;;;;;13.25;12.00;;;;;8.62;82.89;99934.19;3725029;37;20636;-62
2020/12/29 03:31:31;;;;;;;;;13.00;13.00;;;;;8.65;83.01;99948.31;3725314;37;20648;-62
2020/12/29 03:34:00;;;;;;;;;13.00;12.75;;;;;8.51;83.13;99937.34;3725465;37;20653;-63
2020/12/29 03:36:27;;;;;;;;;11.00;11.00;;;;;8.61;82.96;99942.44;3725049;37;20618;-61
2020/12/29 03:38:53;;;;;;;;;14.50;13.75;;;;;8.51;83.34;99920.31;3725246;38;20653;-63
2020/12/29 03:41:20;;;;;;;;;13.00;12.00;;;;;8.60;82.80;99941.63;3725503;37;20632;-62
2020/12/29 03:43:46;;;;;;;;;17.00;13.00;;;;;8.59;82.92;99922.91;3725384;37;20617;-62
2020/12/29 03:46:13;;;;;;;;;13.25;12.25;;;;;8.60;82.79;99925.44;3725289;37;20636;-62
2020/12/29 03:48:40;;;;;;;;;12.25;10.00;;;;;8.62;82.58;99919.84;3725043;37;20603;-62
2020/12/29 03:51:07;;;;;;;;;12.00;10.00;;;;;8.59;82.56;99929.16;3724959;37;20640;-62
2020/12/29 03:53:34;;;;;;;;;14.50;14.50;;;;;8.57;82.72;99920.41;3725497;37;20610;-62
2020/12/29 03:56:03;;;;;;;;;16.75;16.00;;;;;8.45;82.94;99903.00;3725330;37;20573;-62
2020/12/29 03:58:29;;;;;;;;;13.25;13.25;;;;;8.49;82.58;99911.56;3725472;38;20584;-63
2020/12/29 04:00:56;;;;;;;;;18.25;16.50;;;;;8.53;82.83;99896.69;3724989;37;20618;-62
2020/12/29 04:03:23;;;;;;;;;17.75;17.00;;;;;8.51;82.89;99901.44;3725527;38;20593;-62
2020/12/29 04:05:50;;;;;;;;;15.00;13.25;;;;;8.43;82.62;99888.03;3724964;37;20611;-62
2020/12/29 04:08:16;;;;;;;;;15.00;12.75;;;;;8.47;82.82;99889.34;3725280;38;20610;-62
2020/12/29 04:10:43;;;;;;;;;14.50;14.25;;;;;8.41;82.87;99879.31;3724754;37;20662;-60
2020/12/29 04:13:13;;;;;;;;;13.75;12.50;;;;;8.40;82.48;99872.22;3725347;38;20610;-61
2020/12/29 04:15:39;;;;;;;;;17.75;17.50;;;;;8.39;82.53;99878.66;3725143;38;20602;-61
2020/12/29 04:18:05;;;;;;;;;13.75;12.25;;;;;8.34;82.70;99876.50;3725378;37;20569;-61
2020/12/29 04:20:32;;;;;;;;;14.50;13.25;;;;;8.24;82.88;99874.09;3725430;37;20557;-62
2020/12/29 04:23:06;;;;;;;;;14.75;14.50;;;;;8.20;82.93;99875.47;3725030;37;20585;-62
2020/12/29 04:25:33;;;;;;;;;17.75;15.00;;;;;8.13;82.76;99862.91;3725470;37;20604;-61
2020/12/29 04:27:59;;;;;;;;;17.25;15.50;;;;;8.09;82.64;99859.75;3725477;37;20543;-60
2020/12/29 04:30:25;;;;;;;;;18.50;15.00;;;;;8.05;82.74;99854.91;3725492;37;20638;-61
2020/12/29 04:32:52;;;;;;;;;15.75;15.00;;;;;7.97;82.93;99843.19;3725384;37;20591;-62
2020/12/29 04:35:19;;;;;;;;;19.00;16.00;;;;;7.93;83.04;99831.13;3725369;37;20601;-62
2020/12/29 04:37:46;;;;;;;;;20.00;18.75;;;;;7.87;82.91;99826.47;3725530;37;20563;-62
2020/12/29 04:40:13;;;;;;;;;19.50;17.75;;;;;7.88;83.04;99830.84;3725483;37;20550;-62
2020/12/29 04:42:41;;;;;;;;;19.75;18.50;;;;;7.81;83.20;99819.13;3725560;37;20546;-62
2020/12/29 04:45:11;;;;;;;;;21.75;20.50;;;;;7.82;82.98;99817.25;3725487;38;20564;-63
2020/12/29 04:47:40;;;;;;;;;23.50;20.75;;;;;7.78;83.54;99811.44;3725515;38;20524;-63
2020/12/29 04:50:07;;;;;;;;;23.25;20.50;;;;;7.56;83.36;99788.09;3725603;38;20489;-63
2020/12/29 04:52:39;;;;;;;;;20.50;17.50;;;;;7.73;83.27;99808.44;3725624;38;20529;-63
2020/12/29 04:55:10;;;;;;;;;20.50;17.75;;;;;7.66;83.36;99802.13;3725819;38;20538;-62
2020/12/29 04:57:36;;;;;;;;;17.00;13.00;;;;;7.63;83.44;99797.94;3726849;37;20516;-61
2020/12/29 05:00:07;;;;;;;;;15.00;14.50;;;;;7.70;83.09;99818.75;3725467;38;20513;-62
2020/12/29 05:02:33;;;;;;;;;14.50;13.00;;;;;7.71;83.04;99825.81;3725336;37;20546;-63
2020/12/29 05:05:00;;;;;;;;;17.25;15.75;;;;;7.58;82.85;99788.72;3725242;38;20539;-61
2020/12/29 05:07:31;;;;;;;;;12.50;12.50;;;;;7.70;83.34;99813.38;3725498;37;20564;-61
2020/12/29 05:10:09;;;;;;;;;14.50;14.50;;;;;7.62;83.01;99811.59;3725084;38;20498;-61
2020/12/29 05:12:47;;;;;;;;;14.75;13.00;;;;;7.57;82.89;99809.44;3725499;38;20597;-62
2020/12/29 05:15:14;;;;;;;;;15.00;13.75;;;;;7.63;82.70;99814.09;3725204;37;20554;-62
2020/12/29 05:17:42;;;;;;;;;14.33;13.33;;;;;7.54;82.36;99795.50;3725410;38;20521;-61
2020/12/29 05:20:09;;;;;;;;;14.00;13.25;;;;;7.59;82.33;99796.63;3725369;38;20508;-62
2020/12/29 05:22:41;;;;;;;;;15.75;14.25;;;;;7.58;82.40;99800.34;3725307;37;20483;-62
2020/12/29 05:25:20;;;;;;;;;13.00;12.00;;;;;7.54;82.19;99793.66;3725405;37;20508;-62
2020/12/29 05:27:51;;;;;;;;;11.25;11.00;;;;;7.55;81.87;99795.31;3725216;38;20478;-61
2020/12/29 05:30:17;;;;;;;;;13.00;12.00;;;;;7.51;81.84;99803.94;3725410;38;20499;-62
2020/12/29 05:32:44;;;;;;;;;13.25;11.75;;;;;7.41;81.60;99793.44;3725529;37;20474;-62
2020/12/29 05:35:13;;;;;;;;;10.75;10.00;;;;;7.38;81.76;99795.66;3725469;38;20519;-61
2020/12/29 05:37:40;;;;;;;;;12.75;11.25;;;;;7.39;82.08;99800.00;3725472;37;20497;-61
2020/12/29 05:40:30;;;;;;;;;12.00;10.75;;;;;7.34;81.88;99786.25;3725437;38;20490;-62
2020/12/29 05:42:58;;;;;;;;;11.50;11.25;;;;;7.34;81.47;99778.19;3724963;37;20484;-61
2020/12/29 05:45:34;;;;;;;;;11.00;10.00;;;;;7.31;81.60;99779.37;3725309;37;20491;-64
2020/12/29 05:48:02;;;;;;;;;12.50;12.50;;;;;7.27;81.58;99780.78;3725220;38;20449;-61
2020/12/29 05:50:30;;;;;;;;;15.50;12.75;;;;;7.36;81.67;99762.69;3725241;37;20473;-61
2020/12/29 05:53:06;;;;;;;;;10.75;10.00;;;;;7.42;81.66;99775.41;3725083;38;20473;-61
2020/12/29 05:55:33;;;;;;;;;12.25;11.50;;;;;7.45;81.37;99781.28;3725319;38;20456;-61
2020/12/29 05:58:10;;;;;;;;;13.75;12.00;;;;;7.42;81.35;99778.94;3725325;38;20460;-61
2020/12/29 06:00:40;;;;;;;;;14.00;12.75;;;;;7.40;80.89;99796.31;3724907;37;20522;-61
2020/12/29 06:03:08;;;;;;;;;11.50;9.50;;;;;7.41;81.18;99804.19;3724916;38;20484;-64
2020/12/29 06:05:39;;;;;;;;;10.00;10.00;;;;;7.42;80.93;99818.50;3725352;38;20451;-60
2020/12/29 06:08:09;;;;;;;;;12.25;9.25;;;;;7.40;80.60;99828.59;3725611;38;20450;-61
2020/12/29 06:10:37;;;;;;;;;10.75;10.00;;;;;7.42;80.65;99842.72;3725093;38;20423;-61
2020/12/29 06:13:07;;;;;;;;;6.25;6.25;;;;;7.37;80.39;99842.41;3725468;37;20716;-60
2020/12/29 06:15:36;;;;;;;;;15.00;10.75;;;;;7.34;80.48;99840.94;3724422;38;20449;-60
2020/12/29 06:18:34;;;;;;;;;6.00;6.00;;;;;7.26;80.70;99841.84;3724614;37;20444;-61
2020/12/29 06:21:04;;;;;;;;;9.50;9.25;;;;;7.30;80.41;99845.00;3725236;37;20385;-59
2020/12/29 06:23:56;;;;;;;;;9.50;8.75;;;;;7.38;80.32;99844.09;3725550;37;20396;-60
2020/12/29 06:26:34;;;;;;;;;10.00;9.25;;;;;7.31;80.27;99841.28;3724938;38;20412;-61
2020/12/29 06:29:14;;;;;;;;;7.00;7.00;;;;;7.31;80.25;99836.75;3725082;38;20369;-62
2020/12/29 06:31:43;;;;;;;;;15.50;12.50;;;;;7.30;80.68;99850.38;3725070;37;20375;-62
2020/12/29 06:34:15;;;;;;;;;13.50;11.75;;;;;7.34;80.57;99835.53;3725095;37;20409;-62
2020/12/29 06:36:42;;;;;;;;;10.00;10.00;;;;;7.39;80.17;99851.16;3725398;38;20396;-63
2020/12/29 06:39:12;;;;;;;;;10.75;9.25;;;;;7.51;80.26;99865.88;3725480;37;20343;-60
2020/12/29 06:41:41;;;;;;;;;8.00;8.00;;;;;7.55;80.03;99861.81;3725093;37;20383;-61
2020/12/29 06:44:13;;;;;;;;;12.00;8.00;;;;;7.58;79.94;99854.19;3725344;37;20342;-62
2020/12/29 06:46:40;;;;;;;;;9.50;9.00;;;;;7.59;79.72;99855.87;3724918;38;20377;-60
2020/12/29 06:49:22;;;;;;;;;9.00;9.00;;;;;7.67;79.96;99859.50;3725469;37;20376;-59
2020/12/29 06:52:27;;;;;;;;;13.75;13.00;;;;;7.65;80.02;99857.00;3725416;37;20372;-60
2020/12/29 06:54:59;;;;;;;;;10.00;8.00;;;;;7.56;79.84;99825.78;3725467;38;20372;-61
2020/12/29 06:57:54;;;;;;;;;6.50;6.00;;;;;7.75;79.77;99862.13;3725335;38;20305;-63
2020/12/29 07:00:25;;;;;;;;;8.00;6.00;;;;;7.75;79.16;99832.50;3725125;37;20322;-63
2020/12/29 07:02:53;;;;;;;;;7.50;6.25;;;;;7.83;79.05;99841.31;3725107;37;20305;-59
2020/12/29 07:05:27;;;;;;;;;6.00;5.75;;;;;7.91;79.00;99848.50;3725349;38;20328;-60
2020/12/29 07:08:13;;;;;;;;;8.00;6.25;;;;;7.66;78.85;99785.13;3725504;38;20320;-61
2020/12/29 07:10:41;;;;;;;;;9.00;8.75;;;;;7.80;78.18;99805.88;3725793;38;20309;-60
2020/12/29 07:13:13;;;;;;;;;7.25;7.25;;;;;8.07;78.01;99848.31;3725481;38;20329;-62
2020/12/29 07:16:12;;;;;;;;;5.00;4.75;;;;;8.05;78.01;99831.50;3725181;37;20283;-63
2020/12/29 07:18:44;;;;;;;;;7.25;7.25;;;;;8.13;77.65;99836.81;3725427;38;20250;-61
2020/12/29 07:21:26;;;;;;;;;7.00;6.75;;;;;8.14;77.53;99827.69;3725572;38;20297;-62
2020/12/29 07:23:53;;;;;;;;;12.25;10.50;;;;;8.17;77.32;99839.97;3725662;38;20505;-62
2020/12/29 07:26:21;;;;;;;;;8.00;6.00;;;;;8.15;77.07;99859.03;3726388;37;20344;-61
2020/12/29 07:28:53;;;;;;;;;10.50;9.75;;;;;8.16;77.21;99868.78;3725409;37;21297;-61
2020/12/29 07:31:19;;;;;;;;;6.25;5.75;;;;;8.23;77.00;99872.41;3726963;37;20312;-61
2020/12/29 07:33:56;;;;;;;;;6.75;6.00;;;;;8.28;76.48;99883.47;3725642;38;20284;-62
2020/12/29 07:36:23;;;;;;;;;5.50;5.00;;;;;8.31;76.36;99887.66;3725262;38;21353;-62
2020/12/29 07:38:51;;;;;;;;;6.75;5.00;;;;;8.33;76.28;99896.41;3725464;37;21260;-61
2020/12/29 07:41:19;;;;;;;;;6.00;4.75;;;;;8.33;76.62;99900.97;3725461;37;21256;-60
2020/12/29 07:43:46;;;;;;;;;6.00;5.50;;;;;8.38;75.82;99906.62;3725411;37;21266;-61
2020/12/29 07:46:13;;;;;;;;;8.00;6.75;;;;;8.42;75.88;99895.28;3725088;37;20270;-60
2020/12/29 07:48:45;;;;;;;;;12.00;9.75;;;;;8.45;75.75;99910.28;3725435;38;21254;-61
2020/12/29 07:51:11;;;;;;;;;12.25;11.00;;;;;8.52;75.79;99912.03;3725582;37;21315;-61
2020/12/29 07:53:37;;;;;;;;;12.00;10.00;;;;;8.54;75.69;99898.38;3725350;37;21292;-60
2020/12/29 07:56:04;;;;;;;;;10.50;6.25;;;;;8.59;75.55;99898.66;3725305;37;21281;-61
2020/12/29 07:58:33;;;;;;;;;6.75;6.75;;;;;8.62;75.67;99907.22;3724937;37;21343;-61
2020/12/29 08:01:03;;;;;;;;;7.25;7.00;;;;;8.58;75.95;99905.91;3725520;37;21243;-61
2020/12/29 08:03:29;;;;;;;;;7.00;5.75;;;;;8.56;75.81;99907.94;3725414;37;21221;-60
2020/12/29 08:05:55;;;;;;;;;5.25;5.00;;;;;8.54;75.65;99884.88;3725341;38;21228;-62
2020/12/29 08:08:22;;;;;;;;;5.00;5.00;;;;;8.62;76.06;99901.81;3725443;38;21218;-60
2020/12/29 08:10:48;;;;;;;;;9.50;8.25;;;;;8.80;75.32;99923.00;3725452;37;21225;-62
2020/12/29 08:13:19;;;;;;;;;10.00;8.00;;;;;8.92;75.44;99924.19;3725516;37;21238;-61
2020/12/29 08:15:49;;;;;;;;;5.00;5.00;;;;;9.02;74.70;99929.28;3725540;37;21224;-61
2020/12/29 08:18:19;;;;;;;;;5.75;4.50;;;;;9.06;74.37;99922.47;3725551;38;21222;-60
2020/12/29 08:20:57;;;;;;;;;7.25;5.75;;;;;9.13;74.24;99925.25;3725239;38;21200;-61
2020/12/29 08:23:29;;;;;;;;;5.25;5.25;;;;;9.14;73.58;99895.37;3725440;38;21186;-61
2020/12/29 08:26:02;;;;;;;;;9.75;9.00;;;;;9.31;73.08;99920.28;3725306;37;21221;-61
2020/12/29 08:28:35;;;;;;;;;8.00;6.00;;;;;9.44;72.57;99923.09;3725243;37;21250;-60
2020/12/29 08:31:04;;;;;;;;;10.50;8.25;;;;;9.55;72.69;99924.47;3725391;38;21178;-62
2020/12/29 08:33:32;;;;;;;;;5.00;5.00;;;;;9.53;72.29;99916.56;3725372;37;21207;-61
2020/12/29 08:36:02;;;;;;;;;2.75;2.50;;;;;9.52;72.85;99903.25;3725252;37;21199;-61
2020/12/29 08:39:02;;;;;;;;;6.00;5.00;;;;;9.75;72.33;99920.09;3725353;37;21176;-65
2020/12/29 08:41:39;;;;;;;;;8.25;8.25;;;;;9.82;71.37;99893.13;3725621;38;21177;-60
2020/12/29 08:44:08;;;;;;;;;5.50;5.00;;;;;10.00;71.25;99911.56;3722341;37;21195;-59
2020/12/29 08:46:35;;;;;;;;;7.00;6.25;;;;;10.10;70.57;99917.47;3723187;37;21185;-59
2020/12/29 08:49:06;;;;;;;;;6.00;5.00;;;;;10.19;70.33;99914.44;3725474;38;21152;-60
2020/12/29 08:51:39;;;;;;;;;6.75;5.25;;;;;10.19;70.04;99898.22;3725221;38;21158;-60
2020/12/29 08:54:11;;;;;;;;;7.50;7.00;;;;;10.36;69.35;99912.28;3725014;38;21154;-61
2020/12/29 08:56:37;;;;;;;;;7.00;6.50;;;;;10.49;68.93;99896.13;3725268;38;21166;-61
2020/12/29 08:59:36;;;;;;;;;7.00;6.00;;;;;10.54;68.52;99906.34;3725213;37;21163;-61
2020/12/29 09:02:04;;;;;;;;;7.25;6.00;;;;;10.67;67.18;99903.72;3725365;38;21135;-60
2020/12/29 09:04:37;;;;;;;;;7.25;5.75;;;;;10.80;66.65;99906.50;3724960;37;21149;-61
2020/12/29 09:07:09;;;;;;;;;5.00;4.75;;;;;10.85;65.94;99911.31;3725442;38;21135;-61
2020/12/29 09:09:58;;;;;;;;;6.00;6.00;;;;;10.87;65.54;99907.38;3725435;38;21169;-61
2020/12/29 09:12:35;;;;;;;;;7.00;7.00;;;;;10.88;65.75;99902.78;3725355;37;21145;-60
2020/12/29 09:15:11;;;;;;;;;5.75;5.75;;;;;10.96;65.56;99905.28;3725333;38;21121;-60
2020/12/29 09:17:44;;;;;;;;;9.50;6.50;;;;;11.17;65.07;99910.59;3725354;37;21125;-62
2020/12/29 09:20:30;;;;;;;;;9.75;9.00;;;;;11.39;64.58;99910.44;3725503;38;21157;-61
2020/12/29 09:23:16;;;;;;;;;19.00;17.75;;;;;11.49;63.30;99908.97;3725325;38;21131;-61
2020/12/29 09:25:44;;;;;;;;;9.25;7.75;;;;;11.75;62.46;99924.47;3725463;38;21283;-60
2020/12/29 09:28:24;;;;;;;;;17.50;13.25;;;;;11.89;62.24;99928.06;3725349;37;21131;-60
2020/12/29 09:31:22;;;;;;;;;14.00;12.00;;;;;11.85;61.41;99908.66;3725297;38;21200;-60
2020/12/29 09:33:49;;;;;;;;;7.00;6.00;;;;;12.07;60.21;99951.84;3725361;37;21162;-61
2020/12/29 09:36:26;;;;;;;;;7.50;6.75;;;;;12.11;60.77;99956.63;3725285;37;21194;-62
2020/12/29 09:38:57;;;;;;;;;4.50;4.50;;;;;12.12;60.32;99960.19;3725462;38;21209;-61
2020/12/29 09:41:24;;;;;;;;;8.50;8.00;;;;;12.19;60.46;99964.56;3725115;37;21184;-61
2020/12/29 09:43:53;;;;;;;;;7.00;6.50;;;;;12.30;60.26;99959.56;3725052;37;21109;-61
2020/12/29 09:46:22;;;;;;;;;7.50;6.00;;;;;12.27;61.37;99969.78;3725478;37;21198;-61
2020/12/29 09:48:49;;;;;;;;;17.75;16.00;;;;;12.41;59.78;99964.34;3725477;37;21405;-61
2020/12/29 09:51:15;;;;;;;;;11.50;10.00;;;;;12.41;59.48;99959.75;3725085;37;21147;-62
2020/12/29 09:53:41;;;;;;;;;10.50;8.50;;;;;12.49;59.43;99974.97;3725597;37;21194;-63
2020/12/29 09:56:08;;;;;;;;;10.75;9.50;;;;;12.38;59.09;99962.06;3725544;38;21214;-61
2020/12/29 09:58:34;;;;;;;;;10.50;8.00;;;;;12.51;58.53;99976.44;3725437;37;21223;-62
2020/12/29 10:01:00;;;;;;;;;5.00;5.00;;;;;12.69;58.43;99989.38;3725558;37;21154;-61
2020/12/29 10:03:31;;;;;;;;;6.00;6.00;;;;;12.84;58.02;99979.09;3725578;37;21155;-62
2020/12/29 10:05:57;;;;;;;;;8.50;7.50;;;;;12.97;57.45;99988.28;3725229;38;21171;-62
2020/12/29 10:08:24;;;;;;;;;6.75;6.00;;;;;13.03;56.37;99974.62;3725542;38;21167;-62
2020/12/29 10:10:51;;;;;;;;;6.25;6.25;;;;;12.98;56.42;99960.06;3726967;38;21157;-62
2020/12/29 10:13:17;;;;;;;;;10.50;9.50;;;;;13.02;56.69;99950.41;3725690;37;21147;-62
2020/12/29 10:15:44;;;;;;;;;7.50;7.00;;;;;13.23;55.54;99972.72;3725198;37;21206;-62
2020/12/29 10:18:10;;;;;;;;;8.50;7.25;;;;;13.30;56.49;99964.56;3725403;37;21184;-60
2020/12/29 10:20:36;;;;;;;;;7.75;6.75;;;;;13.36;56.06;99971.84;3725370;38;21129;-61
2020/12/29 10:23:02;;;;;;;;;7.25;6.25;;;;;13.43;56.03;99977.25;3725592;37;21057;-60
2020/12/29 10:25:29;;;;;;;;;8.00;8.00;;;;;13.40;56.19;99967.66;3725352;38;21195;-61
2020/12/29 10:27:55;;;;;;;;;4.25;4.25;;;;;13.15;56.15;99978.37;3725263;38;21144;-62
2020/12/29 10:30:21;;;;;;;;;6.00;6.00;;;;;13.31;56.42;99982.53;3725214;38;21122;-61
2020/12/29 10:32:48;;;;;;;;;8.00;8.00;;;;;13.21;57.03;99977.53;3725372;37;21122;-62
2020/12/29 10:35:14;;;;;;;;;9.75;8.75;;;;;13.31;57.28;99990.69;3725291;37;21137;-61
2020/12/29 10:37:40;;;;;;;;;8.50;8.50;;;;;13.40;57.38;99986.66;3725606;37;21134;-62
2020/12/29 10:40:08;;;;;;;;;6.75;6.25;;;;;13.43;56.69;99985.41;3725090;38;21168;-62
2020/12/29 10:42:36;;;;;;;;;10.50;9.00;;;;;13.53;56.53;99989.31;3725363;37;21111;-62
2020/12/29 10:45:03;;;;;;;;;6.75;6.00;;;;;13.63;54.98;99990.72;3724888;38;21114;-62
2020/12/29 10:47:29;;;;;;;;;6.25;6.25;;;;;13.56;53.46;99969.84;3725086;38;21110;-62
2020/12/29 10:49:55;;;;;;;;;8.00;7.75;;;;;13.69;53.04;99987.13;3725504;38;21118;-62
2020/12/29 10:52:21;;;;;;;;;4.00;4.00;;;;;13.65;53.07;99983.19;3725354;37;21121;-61
2020/12/29 10:54:47;;;;;;;;;6.75;6.50;;;;;13.59;53.06;99971.28;3725287;38;21015;-61
2020/12/29 10:57:13;;;;;;;;;10.75;10.25;;;;;13.53;52.45;99973.00;3725735;38;21117;-61
2020/12/29 10:59:40;;;;;;;;;8.25;7.50;;;;;13.47;52.46;99975.78;3725443;38;21129;-62
2020/12/29 11:02:08;;;;;;;;;6.75;5.50;;;;;13.39;52.95;99965.16;3725327;37;21101;-62
2020/12/29 11:04:34;;;;;;;;;7.75;6.25;;;;;13.37;52.82;99975.41;3725036;38;21066;-62
2020/12/29 11:07:00;;;;;;;;;11.50;9.50;;;;;13.25;53.17;99967.06;3725436;38;21096;-62
2020/12/29 11:09:27;;;;;;;;;15.50;12.75;;;;;13.28;53.11;99982.12;3725520;38;21139;-61
2020/12/29 11:11:54;;;;;;;;;11.00;9.00;;;;;13.21;52.96;99984.84;3725333;38;21162;-61
2020/12/29 11:14:20;;;;;;;;;9.25;9.00;;;;;13.20;52.94;99981.31;3725321;37;21057;-62
2020/12/29 11:16:51;;;;;;;;;11.75;10.25;;;;;13.20;53.29;99984.03;3725360;38;21061;-65
2020/12/29 11:19:17;;;;;;;;;11.00;10.75;;;;;13.18;53.34;99977.13;3725262;38;21151;-61
2020/12/29 11:21:48;;;;;;;;;10.50;8.75;;;;;13.29;53.13;99997.38;3725436;37;21112;-62
2020/12/29 11:24:16;;;;;;;;;8.00;6.50;;;;;13.20;53.10;99967.72;3725545;38;21101;-62
2020/12/29 11:26:46;;;;;;;;;5.75;5.75;;;;;13.25;53.25;99976.06;3725307;37;21067;-62
2020/12/29 11:29:13;;;;;;;;;10.75;8.75;;;;;13.10;53.40;99942.84;3725170;37;21060;-62
2020/12/29 11:31:40;;;;;;;;;10.00;8.00;;;;;13.49;53.08;99993.53;3725187;38;21071;-61
2020/12/29 11:34:07;;;;;;;;;8.50;8.50;;;;;13.54;53.14;99990.97;3725619;38;21056;-62
2020/12/29 11:36:33;;;;;;;;;5.75;5.75;;;;;13.53;52.46;99985.75;3724884;38;21131;-62
2020/12/29 11:39:01;;;;;;;;;17.50;15.00;;;;;13.65;51.96;99994.06;3725371;38;21093;-62